Du har inga inställningar för hoppväder.nu

Hoppväder.nu

Senast uppdaterat 00:32

UTC-tid

2020-07-06 kl. 22:32


Sol och måne

Solen går upp 3:51 och går ner 23:06 (beräknade cirkatider)
Nästa fullmåne blir om 27 dagar (2020-08-03)

METAR

ESOW (Västerås)
(12 minuter sedan)
ESOW 062220Z AUTO 27008KT 240V310 9999 FEW023/// OVC051/// 13/10 Q0995=



ESSA (Arlanda)
(12 minuter sedan)
ESSA 062220Z 24008KT 9999 SCT014 BKN023 12/10 Q0993 TEMPO SHRA BKN012 SCT040CB=



ESKN (Skavsta)
(12 minuter sedan)
ESKN 062220Z 26011KT 9999 SCT014 SCT022 12/11 Q0995=



ESOE (Örebro)
(12 minuter sedan)
ESOE 062220Z AUTO 28009KT 250V320 9999 FEW120/// SCT160/// 13/09 Q0997=



ESSD (Borlänge)
(12 minuter sedan)
ESSD 062220Z AUTO 28008KT 9999 OVC033/// 11/07 Q0994=



TAF

ESOW (Västerås)
ESOW



ESSA (Arlanda)
(302 minuter sedan)
ESSA 061730Z 0618/0718 21012KT CAVOK PROB40 0618/0622 SHRA BKN040CB PROB40 0622/0624 -SHRA BKN012 SCT040CB BECMG 0622/0624 27010KT=



ESKN (Skavsta)
(160 minuter sedan)
ESKN AMD 061952Z 0619/0718 25010KT 9999 SCT040 TEMPO 0619/0623 4000 SHRA SCT020CB PROB40 0713/0718 SHRA SCT045CB=



ESOE (Örebro)
(302 minuter sedan)
ESOE 061730Z 0618/0622 21010KT 9999 BKN020 PROB40 0618/0621 4000 SHRA BKN014 BKN030CB BECMG 0618/0620 27008KT=



ESSD (Borlänge)
ESSD





Kodnycklar till TAF och METAR






LHP

(Västerås är område se32e i Delområde 4)

Prognos är inte uppdaterad






Preliminär prognos